createdAt,value
2023-03-06T00:03:52.561Z,18.26849
2023-03-06T00:08:54.036Z,18.693774
2023-03-06T00:13:55.531Z,17.60468
2023-03-06T00:18:57.028Z,17.648456
2023-03-06T00:23:58.589Z,17.548896
2023-03-06T00:29:00.140Z,17.91081
2023-03-06T00:34:01.709Z,17.989364
2023-03-06T00:39:03.201Z,17.363888
2023-03-06T00:44:04.775Z,17.38735
2023-03-06T00:49:06.228Z,17.642282
2023-03-06T00:54:07.702Z,17.353996
2023-03-06T00:59:09.229Z,17.46813
2023-03-06T01:04:10.701Z,17.69215
2023-03-06T01:09:12.213Z,17.3125
2023-03-06T01:14:13.757Z,17.921652
2023-03-06T01:19:15.226Z,17.853872
2023-03-06T01:24:16.707Z,17.698948
2023-03-06T01:29:18.161Z,17.547132
2023-03-06T01:34:19.639Z,17.86888
2023-03-06T01:39:21.127Z,18.128656
2023-03-06T01:44:22.594Z,17.262008
2023-03-06T01:49:24.053Z,17.151416
2023-03-06T01:54:25.552Z,17.954504
2023-03-06T01:59:27.050Z,17.258032
2023-03-06T02:04:28.597Z,16.917314
2023-03-06T02:09:30.173Z,16.715168
2023-03-06T02:14:31.699Z,17.142406
2023-03-06T02:19:33.234Z,17.50166
2023-03-06T02:24:34.739Z,16.906106
2023-03-06T02:29:36.240Z,16.82842
2023-03-06T02:34:37.685Z,17.187498
2023-03-06T02:39:39.361Z,15.84209
2023-03-06T02:44:40.894Z,16.258906
2023-03-06T02:49:42.395Z,16.226514
2023-03-06T02:54:43.921Z,17.462648
2023-03-06T02:59:45.476Z,16.802828
2023-03-06T03:04:46.993Z,16.4531
2023-03-06T03:09:48.449Z,16.994634
2023-03-06T03:14:50.071Z,17.036998
2023-03-06T03:19:51.613Z,17.068954
2023-03-06T03:24:53.220Z,16.672438
2023-03-06T03:29:54.812Z,16.520364
2023-03-06T03:34:56.323Z,16.108664
2023-03-06T03:39:57.833Z,16.559458
2023-03-06T03:44:59.440Z,16.715698
2023-03-06T03:50:00.957Z,16.828244
2023-03-06T03:55:02.457Z,16.112192
2023-03-06T04:00:03.980Z,16.605364
2023-03-06T04:05:05.580Z,15.980146
2023-03-06T04:10:07.094Z,16.24478
2023-03-06T04:15:08.579Z,16.521586
2023-03-06T04:20:10.026Z,17.106298
2023-03-06T04:25:11.540Z,17.011406
2023-03-06T04:30:13.071Z,17.118646
2023-03-06T04:35:14.531Z,16.582146
2023-03-06T04:40:16.016Z,17.332882
2023-03-06T04:45:17.588Z,17.407732
2023-03-06T04:50:19.094Z,16.654608
2023-03-06T04:55:20.599Z,17.262714
2023-03-06T05:00:22.109Z,16.871856
2023-03-06T05:05:23.594Z,16.997022
2023-03-06T05:10:25.305Z,16.762404
2023-03-06T05:15:26.867Z,17.301808
2023-03-06T05:20:28.332Z,17.233404
2023-03-06T05:25:29.803Z,18.138548
2023-03-06T05:30:31.306Z,17.903998
2023-03-06T05:35:32.904Z,19.024532
2023-03-06T05:40:34.440Z,19.72958
2023-03-06T05:45:36.022Z,19.662682
2023-03-06T05:50:37.594Z,19.819356
2023-03-06T05:55:39.130Z,20.680916
2023-03-06T06:00:40.593Z,21.266796
2023-03-06T06:05:42.040Z,21.057146
2023-03-06T06:10:43.515Z,21.188174
2023-03-06T06:15:45.676Z,21.635292
2023-03-06T06:20:47.192Z,22.093876
2023-03-06T06:25:48.632Z,22.521508
2023-03-06T06:30:50.335Z,23.076138
2023-03-06T06:35:51.924Z,23.56117
2023-03-06T06:41:19.336Z,23.47735
2023-03-06T06:47:02.694Z,23.422814
2023-03-06T06:52:22.161Z,24.871844
2023-03-06T06:57:23.585Z,25.238196
2023-03-06T07:02:25.058Z,24.394452
2023-03-06T07:07:26.652Z,25.126912
2023-03-06T07:12:28.090Z,25.511366
2023-03-06T07:17:29.620Z,26.31162
2023-03-06T07:22:41.428Z,26.56715
2023-03-06T07:27:53.669Z,26.51819
2023-03-06T07:32:55.574Z,26.605592
2023-03-06T07:37:57.057Z,27.38571
2023-03-06T07:43:12.997Z,27.386592
2023-03-06T07:48:18.712Z,27.746988
2023-03-06T07:53:20.279Z,28.04693
2023-03-06T07:58:21.881Z,28.31375
2023-03-06T08:03:23.375Z,28.44927
2023-03-06T08:08:24.864Z,28.18374
2023-03-06T08:13:26.388Z,28.98466
2023-03-06T08:18:27.961Z,28.966572
2023-03-06T08:23:29.496Z,28.84739
2023-03-06T08:28:31.102Z,28.33226
2023-03-06T08:33:32.695Z,26.477076
2023-03-06T08:38:34.154Z,28.96615
2023-03-06T08:43:35.624Z,29.731532
2023-03-06T08:48:37.076Z,29.580136
2023-03-06T08:53:43.894Z,30.244464
2023-03-06T08:58:45.719Z,29.831948
2023-03-06T09:03:47.273Z,30.855382
2023-03-06T09:08:48.776Z,30.512396
2023-03-06T09:13:50.229Z,30.125282
2023-03-06T09:18:51.841Z,30.83728
2023-03-06T09:23:53.285Z,31.24095
2023-03-06T09:28:54.802Z,31.028396
2023-03-06T09:33:56.398Z,31.158828
2023-03-06T09:38:57.865Z,31.076284
2023-03-06T09:43:59.326Z,31.15576
2023-03-06T09:49:00.957Z,31.983426
2023-03-06T09:54:02.466Z,31.659194
2023-03-06T09:59:03.967Z,30.401588
2023-03-06T10:04:05.509Z,30.799518
2023-03-06T10:09:07.008Z,31.776612
2023-03-06T10:14:08.589Z,29.155706
2023-03-06T10:19:10.143Z,28.916486
2023-03-06T10:24:11.623Z,28.683618
2023-03-06T10:29:13.223Z,29.550784
2023-03-06T10:34:14.752Z,30.368056
2023-03-06T10:39:16.215Z,29.131008
2023-03-06T10:44:17.820Z,31.734464
2023-03-06T10:49:19.447Z,30.018244
2023-03-06T10:54:20.931Z,30.747002
2023-03-06T10:59:22.464Z,31.774848
2023-03-06T11:04:24.101Z,29.780532
2023-03-06T11:09:25.610Z,29.346208
2023-03-06T11:14:27.738Z,29.255278
2023-03-06T11:19:29.248Z,29.920462
2023-03-06T11:24:30.741Z,29.343114
2023-03-06T11:29:34.903Z,30.652774
2023-03-06T11:34:37.313Z,31.831338
2023-03-06T11:39:38.860Z,30.312882
2023-03-06T11:44:40.312Z,30.046496
2023-03-06T11:49:41.837Z,30.099676
2023-03-06T11:54:43.355Z,30.020878
2023-03-06T11:59:44.796Z,32.440506
2023-03-06T12:04:46.341Z,31.745714
2023-03-06T12:09:47.837Z,31.512412
2023-03-06T12:14:49.282Z,30.859332
2023-03-06T12:19:50.855Z,30.242904
2023-03-06T12:24:52.430Z,31.738426
2023-03-06T12:29:53.958Z,32.692128
2023-03-06T12:34:55.500Z,31.54244
2023-03-06T12:39:57.317Z,30.210472
2023-03-06T12:44:58.974Z,31.05932
2023-03-06T12:50:01.192Z,29.667524
2023-03-06T12:55:02.719Z,29.918468
2023-03-06T13:00:04.254Z,31.709958
2023-03-06T13:05:05.763Z,31.838638
2023-03-06T13:10:07.280Z,31.622108
2023-03-06T13:15:08.790Z,32.15226
2023-03-06T13:20:10.314Z,31.768214
2023-03-06T13:25:11.799Z,31.400516
2023-03-06T13:30:13.250Z,30.73574
2023-03-06T13:35:14.818Z,29.598224
2023-03-06T13:40:16.410Z,30.060392
2023-03-06T13:45:17.945Z,29.738372
2023-03-06T13:50:20.059Z,29.341976
2023-03-06T13:55:21.548Z,30.147564
2023-03-06T14:00:23.084Z,28.94296
2023-03-06T14:05:24.683Z,28.877432
2023-03-06T14:10:26.412Z,28.710132
2023-03-06T14:15:28.194Z,28.782526
2023-03-06T14:25:41.640Z,27.881612
2023-03-06T14:30:43.501Z,28.45189
2023-03-06T14:35:45.268Z,28.117968
2023-03-06T14:40:46.981Z,27.703498
2023-03-06T14:45:48.707Z,27.88647
2023-03-06T14:50:50.243Z,27.858218
2023-03-06T14:55:51.800Z,27.232306
2023-03-06T15:00:53.307Z,27.338244
2023-03-06T15:05:54.890Z,27.699344
2023-03-06T15:10:56.387Z,27.319708
2023-03-06T15:15:57.861Z,27.106516
2023-03-06T15:20:59.319Z,26.922892
2023-03-06T15:26:01.226Z,26.843224
2023-03-06T15:31:02.721Z,26.564504
2023-03-06T15:36:04.270Z,26.873036
2023-03-06T15:41:05.772Z,26.572008
2023-03-06T15:46:07.437Z,26.520566
2023-03-06T15:51:09.032Z,27.032588
2023-03-06T15:56:10.648Z,26.57285
2023-03-06T16:01:12.145Z,26.704624
2023-03-06T16:06:13.667Z,26.036796
2023-03-06T16:11:15.221Z,26.02708
2023-03-06T16:16:16.742Z,26.85009
2023-03-06T16:21:18.228Z,26.257966
2023-03-06T16:26:19.736Z,25.649044
2023-03-06T16:31:21.213Z,24.99294
2023-03-06T16:36:22.695Z,26.034868
2023-03-06T16:41:24.260Z,25.774888
2023-03-06T16:46:25.948Z,25.727652
2023-03-06T16:51:27.503Z,25.672438
2023-03-06T16:56:29.066Z,25.630548
2023-03-06T17:01:30.671Z,25.186904
2023-03-06T17:06:32.218Z,25.59828
2023-03-06T17:11:33.711Z,25.43653
2023-03-06T17:16:35.211Z,24.311664
2023-03-06T17:21:36.739Z,24.6434
2023-03-06T17:26:38.350Z,24.15655
2023-03-06T17:31:39.888Z,24.127212
2023-03-06T17:36:41.383Z,23.980878
2023-03-06T17:41:44.179Z,24.750898
2023-03-06T17:46:47.655Z,23.885334
2023-03-06T17:51:49.247Z,23.636834
2023-03-06T17:56:50.732Z,23.687598
2023-03-06T18:01:52.257Z,23.888672
2023-03-06T18:06:53.778Z,23.79838
2023-03-06T18:11:55.344Z,23.449682
2023-03-06T18:16:56.795Z,23.537328
2023-03-06T18:21:58.288Z,22.677328
2023-03-06T18:27:00.434Z,23.244062
2023-03-06T18:32:02.132Z,23.204778
2023-03-06T18:37:03.801Z,22.600076
2023-03-06T18:42:05.285Z,22.031144
2023-03-06T18:47:06.811Z,22.557712
2023-03-06T18:52:08.259Z,22.342118
2023-03-06T18:57:09.756Z,22.136186
2023-03-06T19:02:11.231Z,21.614978
2023-03-06T19:07:12.683Z,21.887754
2023-03-06T19:12:14.126Z,22.08971
2023-03-06T19:17:15.591Z,21.717578
2023-03-06T19:22:17.108Z,22.142184
2023-03-06T19:27:18.717Z,21.761272
2023-03-06T19:32:20.392Z,21.441464
2023-03-06T19:37:22.060Z,21.249278
2023-03-06T19:42:23.593Z,21.860384
2023-03-06T19:47:25.117Z,21.482566
2023-03-06T19:52:26.654Z,21.509488
2023-03-06T19:57:28.235Z,21.54922
2023-03-06T20:02:29.711Z,20.967492
2023-03-06T20:07:31.269Z,21.215354
2023-03-06T20:12:32.789Z,21.22393
2023-03-06T20:17:34.287Z,21.781382
2023-03-06T20:22:36.086Z,20.378952
2023-03-06T20:27:37.745Z,20.975932
2023-03-06T20:32:39.253Z,19.934304
2023-03-06T20:37:40.869Z,20.727514
2023-03-06T20:42:42.356Z,19.701328
2023-03-06T20:47:43.863Z,20.643586
2023-03-06T20:52:45.383Z,20.068928
2023-03-06T20:57:46.870Z,19.25611
2023-03-06T21:02:48.527Z,19.781144
2023-03-06T21:07:50.035Z,20.04244
2023-03-06T21:18:02.082Z,19.75695
2023-03-06T21:23:03.582Z,19.496034
2023-03-06T21:28:05.626Z,19.671502
2023-03-06T21:33:07.292Z,19.21646
2023-03-06T21:38:08.775Z,18.942558
2023-03-06T21:43:10.341Z,19.895278
2023-03-06T21:48:11.846Z,18.737834
2023-03-06T21:53:13.425Z,19.049432
2023-03-06T21:58:14.921Z,19.43934
2023-03-06T22:03:16.436Z,19.07037
2023-03-06T22:08:17.945Z,18.754172
2023-03-06T22:13:19.512Z,18.442126
2023-03-06T22:18:21.016Z,18.81552
2023-03-06T22:23:22.554Z,18.275288
2023-03-06T22:28:24.003Z,18.944838
2023-03-06T22:33:25.574Z,18.82434
2023-03-06T22:38:27.018Z,17.893332
2023-03-06T22:43:28.582Z,18.686636
2023-03-06T22:48:30.112Z,18.396478
2023-03-06T22:53:31.676Z,18.391878
2023-03-06T22:58:33.159Z,17.709722
2023-03-06T23:03:34.672Z,17.775752
2023-03-06T23:08:36.132Z,17.893224
2023-03-06T23:13:37.620Z,18.503542
2023-03-06T23:18:39.104Z,17.895802
2023-03-06T23:23:40.589Z,17.240378
2023-03-06T23:28:42.043Z,17.858988
2023-03-06T23:33:43.527Z,17.814412
2023-03-06T23:38:45.037Z,17.874606
2023-03-06T23:43:46.515Z,17.252306
2023-03-06T23:48:48.061Z,17.513846
2023-03-06T23:53:49.543Z,17.317182
2023-03-06T23:58:51.011Z,17.44437
